createdAt,value
2018-12-14T00:02:17.676Z,22.03
2018-12-14T00:04:43.609Z,24.00
2018-12-14T00:07:09.514Z,21.17
2018-12-14T00:09:35.441Z,21.27
2018-12-14T00:12:01.380Z,22.17
2018-12-14T00:14:27.322Z,21.17
2018-12-14T00:16:53.252Z,21.43
2018-12-14T00:19:19.148Z,22.97
2018-12-14T00:21:45.066Z,24.13
2018-12-14T00:24:10.987Z,24.20
2018-12-14T00:26:36.923Z,23.53
2018-12-14T00:29:02.812Z,21.50
2018-12-14T00:31:28.824Z,21.17
2018-12-14T00:33:54.719Z,22.83
2018-12-14T00:36:20.695Z,22.73
2018-12-14T00:38:46.607Z,21.47
2018-12-14T00:41:12.512Z,22.43
2018-12-14T00:43:38.515Z,26.40
2018-12-14T00:46:04.413Z,23.53
2018-12-14T00:48:30.334Z,25.50
2018-12-14T00:50:56.246Z,21.47
2018-12-14T00:53:22.203Z,19.67
2018-12-14T00:55:48.105Z,23.03
2018-12-14T00:58:14.098Z,24.10
2018-12-14T01:00:40.541Z,21.60
2018-12-14T01:03:06.508Z,21.67
2018-12-14T01:05:32.442Z,21.27
2018-12-14T01:07:58.334Z,22.00
2018-12-14T01:10:24.259Z,22.27
2018-12-14T01:12:50.158Z,22.37
2018-12-14T01:15:16.258Z,22.13
2018-12-14T01:17:42.148Z,21.50
2018-12-14T01:20:09.199Z,20.47
2018-12-14T01:22:35.335Z,21.43
2018-12-14T01:25:01.348Z,21.13
2018-12-14T01:27:27.243Z,23.13
2018-12-14T01:29:53.165Z,27.67
2018-12-14T01:32:19.109Z,29.43
2018-12-14T01:34:45.051Z,34.97
2018-12-14T01:37:10.948Z,24.20
2018-12-14T01:39:36.880Z,22.03
2018-12-14T01:42:04.956Z,22.23
2018-12-14T01:44:30.725Z,20.77
2018-12-14T01:46:56.624Z,21.70
2018-12-14T01:49:22.528Z,21.67
2018-12-14T01:51:48.428Z,21.97
2018-12-14T01:54:14.348Z,19.90
2018-12-14T01:56:40.256Z,19.57
2018-12-14T01:59:06.176Z,23.43
2018-12-14T02:01:32.097Z,21.20
2018-12-14T02:03:58.046Z,19.40
2018-12-14T02:06:23.978Z,18.80
2018-12-14T02:08:49.884Z,19.43
2018-12-14T02:11:15.801Z,20.97
2018-12-14T02:13:41.700Z,18.27
2018-12-14T02:16:07.609Z,19.03
2018-12-14T02:18:33.556Z,19.30
2018-12-14T02:20:59.486Z,20.53
2018-12-14T02:23:25.387Z,22.73
2018-12-14T02:25:51.321Z,18.67
2018-12-14T02:28:22.126Z,21.13
2018-12-14T02:30:48.294Z,19.97
2018-12-14T02:33:14.178Z,22.23
2018-12-14T02:35:40.116Z,18.30
2018-12-14T02:38:06.123Z,20.53
2018-12-14T02:40:32.058Z,18.87
2018-12-14T02:42:57.954Z,22.00
2018-12-14T02:45:23.831Z,20.60
2018-12-14T02:47:49.750Z,19.20
2018-12-14T02:50:15.668Z,22.00
2018-12-14T02:52:41.601Z,18.57
2018-12-14T02:55:07.555Z,22.77
2018-12-14T02:57:33.518Z,20.90
2018-12-14T02:59:59.429Z,19.73
2018-12-14T03:02:25.364Z,21.57
2018-12-14T03:04:51.369Z,20.37
2018-12-14T03:07:17.287Z,20.83
2018-12-14T03:09:43.234Z,20.03
2018-12-14T03:12:09.213Z,21.00
2018-12-14T03:14:35.269Z,23.00
2018-12-14T03:17:01.314Z,20.50
2018-12-14T03:19:27.216Z,22.73
2018-12-14T03:21:53.137Z,20.27
2018-12-14T03:24:19.045Z,20.83
2018-12-14T03:26:44.986Z,20.93
2018-12-14T03:29:10.890Z,23.27
2018-12-14T03:31:36.822Z,24.13
2018-12-14T03:34:02.721Z,26.37
2018-12-14T03:36:28.641Z,25.63
2018-12-14T03:38:54.541Z,23.93
2018-12-14T03:41:20.478Z,26.07
2018-12-14T03:43:46.426Z,34.33
2018-12-14T03:46:12.319Z,28.37
2018-12-14T03:48:38.243Z,28.53
2018-12-14T03:51:04.150Z,29.40
2018-12-14T03:53:30.065Z,24.03
2018-12-14T03:55:56.050Z,26.87
2018-12-14T03:58:21.997Z,27.17
2018-12-14T04:00:47.920Z,22.63
2018-12-14T04:03:13.837Z,25.43
2018-12-14T04:05:40.048Z,28.07
2018-12-14T04:08:05.965Z,30.27
2018-12-14T04:10:31.892Z,29.70
2018-12-14T04:12:57.786Z,26.00
2018-12-14T04:15:23.714Z,25.53
2018-12-14T04:17:49.714Z,25.00
2018-12-14T04:20:15.636Z,23.57
2018-12-14T04:22:41.569Z,24.63
2018-12-14T04:25:07.507Z,23.13
2018-12-14T04:27:33.478Z,25.47
2018-12-14T04:29:59.388Z,24.50
2018-12-14T04:32:25.319Z,29.87
2018-12-14T04:34:51.286Z,26.20
2018-12-14T04:37:17.273Z,28.23
2018-12-14T04:39:43.187Z,27.50
2018-12-14T04:42:09.133Z,28.57
2018-12-14T04:44:35.125Z,27.13
2018-12-14T04:47:01.244Z,24.77
2018-12-14T04:49:27.609Z,26.30
2018-12-14T04:51:53.500Z,24.00
2018-12-14T04:54:19.477Z,24.40
2018-12-14T04:56:45.371Z,24.00
2018-12-14T04:59:11.391Z,22.17
2018-12-14T05:01:37.381Z,23.67
2018-12-14T05:04:03.376Z,21.60
2018-12-14T05:06:29.292Z,21.70
2018-12-14T05:08:59.592Z,19.27
2018-12-14T05:11:25.546Z,21.80
2018-12-14T05:13:51.570Z,20.37
2018-12-14T05:16:17.510Z,18.60
2018-12-14T05:18:43.424Z,19.33
2018-12-14T05:21:09.320Z,20.20
2018-12-14T05:23:36.271Z,18.60
2018-12-14T05:26:02.174Z,18.13
2018-12-14T05:28:28.107Z,19.37
2018-12-14T05:30:54.005Z,20.07
2018-12-14T05:33:19.945Z,17.77
2018-12-14T05:35:45.888Z,17.23
2018-12-14T05:38:11.788Z,18.70
2018-12-14T05:40:37.720Z,19.33
2018-12-14T05:43:03.619Z,18.83
2018-12-14T05:45:29.538Z,18.30
2018-12-14T05:47:55.536Z,18.07
2018-12-14T05:50:21.443Z,19.83
2018-12-14T05:52:47.340Z,19.87
2018-12-14T05:55:13.281Z,17.67
2018-12-14T05:57:39.203Z,17.67
2018-12-14T06:00:07.528Z,18.77
2018-12-14T06:02:33.431Z,19.00
2018-12-14T06:04:59.367Z,18.97
2018-12-14T06:07:25.307Z,16.27
2018-12-14T06:09:51.192Z,16.73
2018-12-14T06:12:17.114Z,18.37
2018-12-14T06:14:43.026Z,17.57
2018-12-14T06:17:08.959Z,18.97
2018-12-14T06:19:34.861Z,16.17
2018-12-14T06:22:00.804Z,18.27
2018-12-14T06:24:26.693Z,19.47
2018-12-14T06:26:52.633Z,16.47
2018-12-14T06:29:25.489Z,15.97
2018-12-14T06:31:51.421Z,16.70
2018-12-14T06:34:17.327Z,17.80
2018-12-14T06:36:43.289Z,16.37
2018-12-14T06:39:09.191Z,18.17
2018-12-14T06:41:35.339Z,20.53
2018-12-14T06:44:01.226Z,19.47
2018-12-14T06:46:27.115Z,19.60
2018-12-14T06:48:53.047Z,19.53
2018-12-14T06:51:18.988Z,20.50
2018-12-14T06:53:51.824Z,18.63
2018-12-14T06:56:18.003Z,18.13
2018-12-14T06:58:43.900Z,19.67
2018-12-14T07:01:09.789Z,18.93
2018-12-14T07:03:35.704Z,18.60
2018-12-14T07:06:01.619Z,17.80
2018-12-14T07:08:27.632Z,20.77
2018-12-14T07:10:53.532Z,18.77
2018-12-14T07:13:21.987Z,21.13
2018-12-14T07:15:47.409Z,19.37
2018-12-14T07:18:13.378Z,21.93
2018-12-14T07:20:39.612Z,19.70
2018-12-14T07:23:05.552Z,23.07
2018-12-14T07:25:31.468Z,19.67
2018-12-14T07:27:57.419Z,20.17
2018-12-14T07:30:23.310Z,19.10
2018-12-14T07:32:49.234Z,22.37
2018-12-14T07:35:15.164Z,21.30
2018-12-14T07:37:41.062Z,23.57
2018-12-14T07:40:06.985Z,21.73
2018-12-14T07:42:32.890Z,19.30
2018-12-14T07:44:58.870Z,19.57
2018-12-14T07:47:24.933Z,19.10
2018-12-14T07:49:50.863Z,19.97
2018-12-14T07:52:16.779Z,20.23
2018-12-14T07:54:42.713Z,21.10
2018-12-14T07:57:15.560Z,20.07
2018-12-14T07:59:41.485Z,18.73
2018-12-14T08:02:07.379Z,18.27
2018-12-14T08:04:33.623Z,17.60
2018-12-14T08:06:59.859Z,18.20
2018-12-14T08:09:25.913Z,17.80
2018-12-14T08:11:51.808Z,18.77
2018-12-14T08:14:17.769Z,17.77
2018-12-14T08:16:43.677Z,18.53
2018-12-14T08:19:09.592Z,16.77
2018-12-14T08:21:35.539Z,16.80
2018-12-14T08:24:01.450Z,16.50
2018-12-14T08:26:27.442Z,17.20
2018-12-14T08:28:53.389Z,18.07
2018-12-14T08:31:19.277Z,18.00
2018-12-14T08:33:45.193Z,18.17
2018-12-14T08:36:11.101Z,21.60
2018-12-14T08:38:37.048Z,17.60
2018-12-14T08:41:02.948Z,18.23
2018-12-14T08:43:28.877Z,17.23
2018-12-14T08:45:54.814Z,18.03
2018-12-14T08:48:20.956Z,19.80
2018-12-14T08:50:47.013Z,16.97
2018-12-14T08:53:13.349Z,16.03
2018-12-14T08:55:39.329Z,18.63
2018-12-14T08:58:05.353Z,20.63
2018-12-14T09:00:31.317Z,20.07
2018-12-14T09:02:57.325Z,17.57
2018-12-14T09:05:23.351Z,18.83
2018-12-14T09:07:49.243Z,18.77
2018-12-14T09:10:15.132Z,16.63
2018-12-14T09:12:41.389Z,18.40
2018-12-14T09:15:07.284Z,19.87
2018-12-14T09:17:33.282Z,17.47
2018-12-14T09:19:59.400Z,17.03
2018-12-14T09:22:25.328Z,16.87
2018-12-14T09:24:51.236Z,16.83
2018-12-14T09:27:17.166Z,18.37
2018-12-14T09:29:43.067Z,16.83
2018-12-14T09:32:08.997Z,18.67
2018-12-14T09:34:35.405Z,17.80
2018-12-14T09:37:01.332Z,16.27
2018-12-14T09:39:27.283Z,19.87
2018-12-14T09:41:53.213Z,19.07
2018-12-14T09:44:19.115Z,16.20
2018-12-14T09:46:45.052Z,15.57
2018-12-14T09:49:10.967Z,18.17
2018-12-14T09:51:36.904Z,19.40
2018-12-14T09:54:02.838Z,17.67
2018-12-14T09:56:28.986Z,18.50
2018-12-14T09:58:54.957Z,18.50
2018-12-14T10:01:20.865Z,18.97
2018-12-14T10:03:54.199Z,19.77
2018-12-14T10:06:20.094Z,17.20
2018-12-14T10:08:46.015Z,15.77
2018-12-14T10:11:12.157Z,17.30
2018-12-14T10:13:38.361Z,17.17
2018-12-14T10:16:04.587Z,17.40
2018-12-14T10:18:30.617Z,16.57
2018-12-14T10:20:56.558Z,17.47
2018-12-14T10:23:22.473Z,15.57
2018-12-14T10:25:48.446Z,17.87
2018-12-14T10:28:14.478Z,19.17
2018-12-14T10:30:40.393Z,17.57
2018-12-14T10:33:06.335Z,15.47
2018-12-14T10:35:32.241Z,14.47
2018-12-14T10:37:58.197Z,17.53
2018-12-14T10:40:24.080Z,16.00
2018-12-14T10:42:50.019Z,16.00
2018-12-14T10:45:15.906Z,15.93
2018-12-14T10:47:41.885Z,13.67
2018-12-14T10:50:07.789Z,14.37
2018-12-14T10:52:33.710Z,13.00
2018-12-14T10:54:59.663Z,14.33
2018-12-14T10:57:25.627Z,13.23
2018-12-14T10:59:51.562Z,15.10
2018-12-14T11:02:17.504Z,13.20
2018-12-14T11:04:43.447Z,14.03
2018-12-14T11:07:09.357Z,14.67
2018-12-14T11:09:35.305Z,14.60
2018-12-14T11:12:01.234Z,15.37
2018-12-14T11:14:27.170Z,15.30
2018-12-14T11:16:53.119Z,16.00
2018-12-14T11:19:19.039Z,13.63
2018-12-14T11:21:44.966Z,14.00
2018-12-14T11:24:10.876Z,15.33
2018-12-14T11:26:36.828Z,16.73
2018-12-14T11:29:02.720Z,15.43
2018-12-14T11:31:28.652Z,14.90
2018-12-14T11:33:55.612Z,15.10
2018-12-14T11:36:21.534Z,14.90
2018-12-14T11:38:47.472Z,16.20
2018-12-14T11:41:18.471Z,14.73
2018-12-14T11:43:41.316Z,14.57
2018-12-14T11:46:07.228Z,15.07
2018-12-14T11:48:33.158Z,14.40
2018-12-14T11:50:59.094Z,13.70
2018-12-14T11:53:25.005Z,13.50
2018-12-14T11:55:51.010Z,15.00
2018-12-14T11:58:17.000Z,14.40
2018-12-14T12:00:43.022Z,15.47
2018-12-14T12:03:09.032Z,13.87
2018-12-14T12:05:34.974Z,13.70
2018-12-14T12:08:01.226Z,15.20
2018-12-14T12:10:27.128Z,13.33
2018-12-14T12:12:53.072Z,13.63
2018-12-14T12:15:19.068Z,13.03
2018-12-14T12:17:49.424Z,12.47
2018-12-14T12:20:13.355Z,12.00
2018-12-14T12:22:46.322Z,13.13
2018-12-14T12:25:12.222Z,14.07
2018-12-14T12:27:38.174Z,12.13
2018-12-14T12:30:07.027Z,13.30
2018-12-14T12:32:32.966Z,13.03
2018-12-14T12:34:58.873Z,14.03
2018-12-14T12:37:24.844Z,12.80
2018-12-14T12:39:50.807Z,12.80
2018-12-14T12:42:16.745Z,13.03
2018-12-14T12:44:42.656Z,14.23
2018-12-14T12:47:08.613Z,13.13
2018-12-14T12:49:34.517Z,13.80
2018-12-14T12:52:00.444Z,13.73
2018-12-14T12:54:26.412Z,12.53
2018-12-14T12:56:52.418Z,13.53
2018-12-14T12:59:18.447Z,12.37
2018-12-14T13:01:44.481Z,12.47
2018-12-14T13:04:10.391Z,12.17
2018-12-14T13:06:36.318Z,13.87
2018-12-14T13:09:04.351Z,13.43
2018-12-14T13:11:30.260Z,12.50
2018-12-14T13:13:56.194Z,14.53
2018-12-14T13:16:22.113Z,13.57
2018-12-14T13:18:48.027Z,13.37
2018-12-14T13:21:14.093Z,23.17
2018-12-14T13:23:40.052Z,36.83
2018-12-14T13:26:06.134Z,73.63
2018-12-14T13:28:32.069Z,34.70
2018-12-14T13:30:58.019Z,92.90
2018-12-14T13:33:24.332Z,32.97
2018-12-14T13:35:50.510Z,27.13
2018-12-14T13:38:16.475Z,21.73
2018-12-14T13:40:42.507Z,14.73
2018-12-14T13:43:08.446Z,14.20
2018-12-14T13:45:34.494Z,16.43
2018-12-14T13:48:00.562Z,14.40
2018-12-14T13:50:26.477Z,13.07
2018-12-14T13:52:52.428Z,13.80
2018-12-14T13:55:18.375Z,14.00
2018-12-14T13:57:45.565Z,14.10
2018-12-14T14:00:12.038Z,15.40
2018-12-14T14:02:37.961Z,12.13
2018-12-14T14:05:04.144Z,13.03
2018-12-14T14:07:30.067Z,12.17
2018-12-14T14:09:56.023Z,11.87
2018-12-14T14:12:21.973Z,12.53
2018-12-14T14:14:52.969Z,12.77
2018-12-14T14:17:15.990Z,12.67
2018-12-14T14:19:42.287Z,12.83
2018-12-14T14:22:08.422Z,12.50
2018-12-14T14:24:34.424Z,14.37
2018-12-14T14:27:00.507Z,12.63
2018-12-14T14:29:26.443Z,12.73
2018-12-14T14:31:52.450Z,14.07
2018-12-14T14:34:18.365Z,16.47
2018-12-14T14:36:44.333Z,16.53
2018-12-14T14:39:10.260Z,12.00
2018-12-14T14:41:36.210Z,12.67
2018-12-14T14:44:02.741Z,12.83
2018-12-14T14:46:30.248Z,11.03
2018-12-14T14:48:56.221Z,12.13
2018-12-14T14:51:22.502Z,12.53
2018-12-14T14:53:48.518Z,14.17
2018-12-14T14:56:14.532Z,13.67
2018-12-14T14:58:40.528Z,11.83
2018-12-14T15:01:06.514Z,13.63
2018-12-14T15:03:32.752Z,14.57
2018-12-14T15:05:58.720Z,15.13
2018-12-14T15:08:24.948Z,14.30
2018-12-14T15:10:50.909Z,14.13
2018-12-14T15:13:16.900Z,13.40
2018-12-14T15:15:42.876Z,16.33
2018-12-14T15:18:08.873Z,52.70
2018-12-14T15:20:34.875Z,75.03
2018-12-14T15:23:00.875Z,56.73
2018-12-14T15:25:26.893Z,43.30
2018-12-14T15:27:52.863Z,23.80
2018-12-14T15:30:18.872Z,18.53
2018-12-14T15:32:44.873Z,15.40
2018-12-14T15:35:10.856Z,14.40
2018-12-14T15:37:36.918Z,15.60
2018-12-14T15:40:04.942Z,15.13
2018-12-14T15:42:30.944Z,15.33
2018-12-14T15:44:56.915Z,15.43
2018-12-14T15:47:22.922Z,14.30
2018-12-14T15:49:48.896Z,18.00
2018-12-14T15:52:14.902Z,14.03
2018-12-14T15:54:40.889Z,15.50
2018-12-14T15:57:06.929Z,18.37
2018-12-14T15:59:32.920Z,15.70
2018-12-14T16:01:58.935Z,16.23
2018-12-14T16:04:24.946Z,14.53
2018-12-14T16:06:50.971Z,13.73
2018-12-14T16:09:16.981Z,15.70
2018-12-14T16:11:42.983Z,15.93
2018-12-14T16:14:09.147Z,13.83
2018-12-14T16:16:35.249Z,15.30
2018-12-14T16:19:01.290Z,15.67
2018-12-14T16:21:27.386Z,14.37
2018-12-14T16:23:53.411Z,15.90
2018-12-14T16:26:19.532Z,15.30
2018-12-14T16:28:52.460Z,13.40
2018-12-14T16:31:25.549Z,15.40
2018-12-14T16:33:51.535Z,20.57
2018-12-14T16:36:17.516Z,46.10
2018-12-14T16:38:43.510Z,61.27
2018-12-14T16:41:09.460Z,51.30
2018-12-14T16:43:35.477Z,25.67
2018-12-14T16:46:01.444Z,19.73
2018-12-14T16:48:27.406Z,23.27
2018-12-14T16:50:53.405Z,16.67
2018-12-14T16:53:19.362Z,17.07
2018-12-14T16:55:45.370Z,17.53
2018-12-14T16:58:11.424Z,22.97
2018-12-14T17:00:37.510Z,16.60
2018-12-14T17:03:03.511Z,17.97
2018-12-14T17:05:29.505Z,17.50
2018-12-14T17:07:55.444Z,16.43
2018-12-14T17:10:21.447Z,18.13
2018-12-14T17:12:47.423Z,17.17
2018-12-14T17:15:13.422Z,15.93
2018-12-14T17:17:39.514Z,18.47
2018-12-14T17:20:05.519Z,18.37
2018-12-14T17:22:31.594Z,16.10
2018-12-14T17:24:57.593Z,18.23
2018-12-14T17:27:23.580Z,20.23
2018-12-14T17:29:49.564Z,17.40
2018-12-14T17:32:15.615Z,16.63
2018-12-14T17:34:41.619Z,17.90
2018-12-14T17:37:07.777Z,16.10
2018-12-14T17:39:33.748Z,17.43
2018-12-14T17:41:59.749Z,18.57
2018-12-14T17:44:25.739Z,19.07
2018-12-14T17:46:52.087Z,19.47
2018-12-14T17:49:18.049Z,18.53
2018-12-14T17:51:44.187Z,18.57
2018-12-14T17:54:10.264Z,19.23
2018-12-14T17:56:36.318Z,20.60
2018-12-14T17:59:02.311Z,19.23
2018-12-14T18:01:28.309Z,18.13
2018-12-14T18:03:54.315Z,19.40
2018-12-14T18:06:20.400Z,17.50
2018-12-14T18:08:46.497Z,20.53
2018-12-14T18:11:12.499Z,21.03
2018-12-14T18:13:38.505Z,19.70
2018-12-14T18:16:04.512Z,20.50
2018-12-14T18:18:30.581Z,20.07
2018-12-14T18:20:56.555Z,19.63
2018-12-14T18:23:22.627Z,17.53
2018-12-14T18:25:48.621Z,20.63
2018-12-14T18:28:14.593Z,19.57
2018-12-14T18:30:41.231Z,24.67
2018-12-14T18:33:07.373Z,21.97
2018-12-14T18:35:33.371Z,21.47
2018-12-14T18:37:59.335Z,20.97
2018-12-14T18:40:25.359Z,24.33
2018-12-14T18:42:51.318Z,19.97
2018-12-14T18:45:17.310Z,23.77
2018-12-14T18:47:43.384Z,23.07
2018-12-14T18:50:09.346Z,22.63
2018-12-14T18:52:35.338Z,20.90
2018-12-14T18:55:01.299Z,20.57
2018-12-14T18:57:27.334Z,22.43
2018-12-14T18:59:53.310Z,22.30
2018-12-14T19:02:19.327Z,20.90
2018-12-14T19:04:45.313Z,19.77
2018-12-14T19:07:11.411Z,21.37
2018-12-14T19:09:37.702Z,23.73
2018-12-14T19:12:03.737Z,21.13
2018-12-14T19:14:29.699Z,24.73
2018-12-14T19:16:56.477Z,26.07
2018-12-14T19:19:22.523Z,21.70
2018-12-14T19:21:48.504Z,22.37
2018-12-14T19:24:18.721Z,22.10
2018-12-14T19:26:44.967Z,26.67
2018-12-14T19:29:10.992Z,22.20
2018-12-14T19:31:36.995Z,23.00
2018-12-14T19:34:03.038Z,21.93
2018-12-14T19:36:29.299Z,24.30
2018-12-14T19:38:55.667Z,21.60
2018-12-14T19:41:21.638Z,24.37
2018-12-14T19:43:47.661Z,24.50
2018-12-14T19:46:13.635Z,23.83
2018-12-14T19:48:39.668Z,24.37
2018-12-14T19:51:05.688Z,23.80
2018-12-14T19:53:31.719Z,23.50
2018-12-14T19:55:57.750Z,23.97
2018-12-14T19:58:23.790Z,25.23
2018-12-14T20:00:49.796Z,26.90
2018-12-14T20:03:15.798Z,23.07
2018-12-14T20:05:41.914Z,26.33
2018-12-14T20:08:07.880Z,25.27
2018-12-14T20:10:33.897Z,24.33
2018-12-14T20:12:59.876Z,25.77
2018-12-14T20:15:25.946Z,23.10
2018-12-14T20:17:51.949Z,24.83
2018-12-14T20:20:17.978Z,22.10
2018-12-14T20:22:44.474Z,22.30
2018-12-14T20:25:10.562Z,25.33
2018-12-14T20:27:36.611Z,24.27
2018-12-14T20:30:04.054Z,24.57
2018-12-14T20:32:30.046Z,22.90
2018-12-14T20:34:56.384Z,24.77
2018-12-14T20:37:22.482Z,23.07
2018-12-14T20:39:48.491Z,24.97
2018-12-14T20:42:14.449Z,24.73
2018-12-14T20:44:40.482Z,24.50
2018-12-14T20:47:06.533Z,25.83
2018-12-14T20:49:32.496Z,21.77
2018-12-14T20:51:58.588Z,24.53
2018-12-14T20:54:24.552Z,24.73
2018-12-14T20:56:51.693Z,23.53
2018-12-14T20:59:18.109Z,24.27
2018-12-14T21:01:44.234Z,25.07
2018-12-14T21:04:10.207Z,25.67
2018-12-14T21:06:36.192Z,26.97
2018-12-14T21:09:03.541Z,25.90
2018-12-14T21:11:29.773Z,25.50
2018-12-14T21:13:55.792Z,26.27
2018-12-14T21:16:25.940Z,26.40
2018-12-14T21:18:49.875Z,30.30
2018-12-14T21:21:15.911Z,26.13
2018-12-14T21:23:41.919Z,27.87
2018-12-14T21:26:07.941Z,27.13
2018-12-14T21:28:33.900Z,31.10
2018-12-14T21:30:59.905Z,32.43
2018-12-14T21:33:25.884Z,28.37
2018-12-14T21:35:51.884Z,29.30
2018-12-14T21:38:17.891Z,31.03
2018-12-14T21:40:43.844Z,27.90
2018-12-14T21:43:09.861Z,28.37
2018-12-14T21:45:35.855Z,26.73
2018-12-14T21:48:01.873Z,28.20
2018-12-14T21:50:27.868Z,30.00
2018-12-14T21:52:53.859Z,28.50
2018-12-14T21:55:19.919Z,29.37
2018-12-14T21:57:46.476Z,27.47
2018-12-14T22:00:12.575Z,28.53
2018-12-14T22:02:38.639Z,32.77
2018-12-14T22:05:05.916Z,29.73
2018-12-14T22:07:31.935Z,29.57
2018-12-14T22:09:57.916Z,30.20
2018-12-14T22:12:23.947Z,31.30
2018-12-14T22:14:49.918Z,29.60
2018-12-14T22:17:15.926Z,29.80
2018-12-14T22:19:41.922Z,30.70
2018-12-14T22:22:07.915Z,33.33
2018-12-14T22:24:34.040Z,31.47
2018-12-14T22:27:00.066Z,29.90
2018-12-14T22:29:26.156Z,29.10
2018-12-14T22:31:52.116Z,28.43
2018-12-14T22:34:18.135Z,27.83
2018-12-14T22:36:44.139Z,29.20
2018-12-14T22:39:17.391Z,28.83
2018-12-14T22:41:43.382Z,27.20
2018-12-14T22:44:09.389Z,27.20
2018-12-14T22:46:35.355Z,29.07
2018-12-14T22:49:01.359Z,28.73
2018-12-14T22:51:27.334Z,28.50
2018-12-14T22:53:53.351Z,25.50
2018-12-14T22:56:19.558Z,29.97
2018-12-14T22:58:45.553Z,28.57
2018-12-14T23:01:11.523Z,28.10
2018-12-14T23:03:37.542Z,26.93
2018-12-14T23:06:03.510Z,29.77
2018-12-14T23:08:29.522Z,26.63
2018-12-14T23:10:55.524Z,27.83
2018-12-14T23:13:21.517Z,28.00
2018-12-14T23:15:47.482Z,25.70
2018-12-14T23:18:13.466Z,28.43
2018-12-14T23:20:39.507Z,28.17
2018-12-14T23:23:05.516Z,28.60
2018-12-14T23:25:31.494Z,27.50
2018-12-14T23:27:57.492Z,30.83
2018-12-14T23:30:23.502Z,29.43
2018-12-14T23:32:49.505Z,26.47
2018-12-14T23:35:15.450Z,29.67
2018-12-14T23:37:41.520Z,29.50
2018-12-14T23:40:07.482Z,30.37
2018-12-14T23:42:33.455Z,31.40
2018-12-14T23:44:59.476Z,29.70
2018-12-14T23:47:25.426Z,27.23
2018-12-14T23:49:51.454Z,31.23
2018-12-14T23:52:17.415Z,28.27
2018-12-14T23:54:43.434Z,28.13
2018-12-14T23:57:12.214Z,28.87
2018-12-14T23:59:37.436Z,28.83
